createdAt,value
2018-12-22T00:01:48.447Z,6.03
2018-12-22T00:04:18.845Z,5.47
2018-12-22T00:06:49.991Z,6.40
2018-12-22T00:09:20.435Z,6.03
2018-12-22T00:11:50.732Z,6.53
2018-12-22T00:14:21.713Z,7.20
2018-12-22T00:16:52.053Z,9.07
2018-12-22T00:19:23.594Z,7.93
2018-12-22T00:21:53.928Z,7.63
2018-12-22T00:24:24.516Z,6.60
2018-12-22T00:26:54.950Z,6.33
2018-12-22T00:29:25.394Z,7.87
2018-12-22T00:31:55.839Z,7.23
2018-12-22T00:34:26.207Z,8.03
2018-12-22T00:36:56.609Z,7.27
2018-12-22T00:39:27.135Z,6.37
2018-12-22T00:41:57.579Z,5.60
2018-12-22T00:44:28.372Z,6.27
2018-12-22T00:46:58.706Z,5.93
2018-12-22T00:49:28.859Z,6.00
2018-12-22T00:51:59.308Z,5.70
2018-12-22T00:54:29.856Z,5.33
2018-12-22T00:57:01.261Z,6.23
2018-12-22T00:59:31.968Z,5.30
2018-12-22T01:02:02.497Z,5.13
2018-12-22T01:04:32.815Z,6.60
2018-12-22T01:07:03.312Z,4.80
2018-12-22T01:09:33.694Z,6.10
2018-12-22T01:12:04.099Z,7.63
2018-12-22T01:14:34.357Z,6.17
2018-12-22T01:17:04.689Z,5.40
2018-12-22T01:19:35.080Z,5.90
2018-12-22T01:22:05.436Z,5.90
2018-12-22T01:24:35.847Z,5.73
2018-12-22T01:27:06.187Z,6.40
2018-12-22T01:29:36.551Z,6.10
2018-12-22T01:32:07.008Z,4.80
2018-12-22T01:34:37.478Z,7.10
2018-12-22T01:37:07.811Z,5.77
2018-12-22T01:39:38.128Z,6.23
2018-12-22T01:42:09.305Z,4.50
2018-12-22T01:44:39.921Z,6.30
2018-12-22T01:47:10.445Z,5.97
2018-12-22T01:49:40.836Z,5.60
2018-12-22T01:52:11.401Z,6.80
2018-12-22T01:54:41.923Z,8.17
2018-12-22T01:57:13.386Z,6.23
2018-12-22T01:59:43.919Z,6.23
2018-12-22T02:02:14.161Z,6.83
2018-12-22T02:04:44.659Z,5.73
2018-12-22T02:07:14.902Z,6.60
2018-12-22T02:09:45.347Z,6.90
2018-12-22T02:12:15.509Z,5.87
2018-12-22T02:14:45.883Z,5.53
2018-12-22T02:17:16.279Z,6.53
2018-12-22T02:19:46.838Z,7.07
2018-12-22T02:22:17.073Z,6.50
2018-12-22T02:24:47.519Z,5.47
2018-12-22T02:27:17.803Z,5.03
2018-12-22T02:29:48.158Z,5.27
2018-12-22T02:32:18.574Z,6.00
2018-12-22T02:34:50.031Z,5.73
2018-12-22T02:37:20.351Z,6.60
2018-12-22T02:39:50.695Z,5.33
2018-12-22T02:42:21.876Z,4.87
2018-12-22T02:44:52.187Z,5.23
2018-12-22T02:47:22.696Z,5.03
2018-12-22T02:49:52.987Z,4.33
2018-12-22T02:52:23.427Z,5.43
2018-12-22T02:54:53.886Z,5.17
2018-12-22T02:57:25.433Z,5.17
2018-12-22T02:59:55.666Z,5.83
2018-12-22T03:02:26.108Z,5.73
2018-12-22T03:04:56.629Z,6.40
2018-12-22T03:07:27.066Z,7.03
2018-12-22T03:09:57.569Z,5.83
2018-12-22T03:12:30.453Z,4.70
2018-12-22T03:15:00.707Z,5.13
2018-12-22T03:17:31.110Z,5.50
2018-12-22T03:20:01.523Z,5.73
2018-12-22T03:22:31.916Z,5.80
2018-12-22T03:25:02.322Z,4.57
2018-12-22T03:27:32.539Z,5.00
2018-12-22T03:30:02.756Z,5.00
2018-12-22T03:32:33.390Z,6.13
2018-12-22T03:35:03.823Z,6.33
2018-12-22T03:37:34.058Z,6.63
2018-12-22T03:40:05.245Z,6.53
2018-12-22T03:42:36.683Z,5.10
2018-12-22T03:45:07.385Z,7.00
2018-12-22T03:47:37.711Z,5.13
2018-12-22T03:50:08.217Z,5.37
2018-12-22T03:52:38.665Z,5.33
2018-12-22T03:55:08.911Z,5.73
2018-12-22T03:57:40.255Z,5.50
2018-12-22T04:00:10.668Z,5.10
2018-12-22T04:02:41.103Z,4.10
2018-12-22T04:05:11.261Z,5.10
2018-12-22T04:07:41.653Z,4.17
2018-12-22T04:10:11.994Z,3.30
2018-12-22T04:12:42.401Z,2.97
2018-12-22T04:15:12.797Z,3.73
2018-12-22T04:17:43.053Z,3.50
2018-12-22T04:20:13.493Z,3.40
2018-12-22T04:22:43.898Z,2.97
2018-12-22T04:25:14.443Z,3.77
2018-12-22T04:27:44.897Z,3.37
2018-12-22T04:30:15.265Z,3.47
2018-12-22T04:32:45.740Z,2.80
2018-12-22T04:35:16.274Z,3.73
2018-12-22T04:37:46.701Z,4.27
2018-12-22T04:40:17.131Z,5.00
2018-12-22T04:42:48.124Z,5.77
2018-12-22T04:45:18.459Z,5.93
2018-12-22T04:47:48.928Z,6.63
2018-12-22T04:50:19.462Z,6.60
2018-12-22T04:52:50.477Z,6.00
2018-12-22T04:55:20.973Z,5.67
2018-12-22T04:57:52.339Z,6.13
2018-12-22T05:00:23.244Z,6.40
2018-12-22T05:02:55.373Z,5.20
2018-12-22T05:05:25.929Z,4.90
2018-12-22T05:07:56.347Z,4.57
2018-12-22T05:10:26.665Z,4.27
2018-12-22T05:12:56.913Z,4.13
2018-12-22T05:15:27.327Z,4.33
2018-12-22T05:17:57.779Z,4.33
2018-12-22T05:20:28.312Z,4.53
2018-12-22T05:22:58.763Z,5.97
2018-12-22T05:25:28.747Z,6.20
2018-12-22T05:27:59.725Z,5.23
2018-12-22T05:30:30.295Z,5.20
2018-12-22T05:33:00.529Z,4.90
2018-12-22T05:35:30.981Z,4.80
2018-12-22T05:38:01.492Z,4.27
2018-12-22T05:40:31.744Z,4.53
2018-12-22T05:43:02.228Z,3.93
2018-12-22T05:45:33.000Z,3.90
2018-12-22T05:48:03.634Z,3.57
2018-12-22T05:50:33.849Z,3.60
2018-12-22T05:53:05.310Z,3.63
2018-12-22T05:55:35.645Z,2.83
2018-12-22T05:58:06.257Z,3.30
2018-12-22T06:00:36.717Z,3.07
2018-12-22T06:03:07.983Z,3.97
2018-12-22T06:05:39.413Z,3.43
2018-12-22T06:08:09.833Z,3.03
2018-12-22T06:10:41.280Z,2.73
2018-12-22T06:13:11.796Z,3.20
2018-12-22T06:15:42.446Z,3.57
2018-12-22T06:18:12.880Z,3.07
2018-12-22T06:20:43.322Z,2.93
2018-12-22T06:23:13.569Z,2.30
2018-12-22T06:25:43.932Z,2.70
2018-12-22T06:28:14.292Z,2.90
2018-12-22T06:30:44.674Z,3.03
2018-12-22T06:33:15.083Z,2.70
2018-12-22T06:35:45.447Z,2.70
2018-12-22T06:38:15.796Z,3.73
2018-12-22T06:40:45.976Z,3.13
2018-12-22T06:43:17.208Z,3.53
2018-12-22T06:45:47.805Z,2.67
2018-12-22T06:48:18.125Z,2.30
2018-12-22T06:50:48.771Z,2.30
2018-12-22T06:53:19.974Z,2.23
2018-12-22T06:55:50.437Z,2.03
2018-12-22T06:58:21.086Z,1.77
2018-12-22T07:00:51.402Z,2.07
2018-12-22T07:03:21.835Z,2.60
2018-12-22T07:05:52.156Z,2.07
2018-12-22T07:08:22.327Z,1.97
2018-12-22T07:10:52.634Z,1.50
2018-12-22T07:13:23.038Z,2.00
2018-12-22T07:15:53.483Z,1.90
2018-12-22T07:18:24.091Z,2.07
2018-12-22T07:20:54.480Z,2.37
2018-12-22T07:23:24.985Z,2.43
2018-12-22T07:25:55.198Z,1.70
2018-12-22T07:28:25.736Z,1.90
2018-12-22T07:30:56.263Z,2.13
2018-12-22T07:33:27.307Z,1.73
2018-12-22T07:35:57.941Z,1.70
2018-12-22T07:38:28.160Z,1.70
2018-12-22T07:40:58.408Z,2.17
2018-12-22T07:43:30.229Z,2.07
2018-12-22T07:46:00.869Z,1.70
2018-12-22T07:48:31.423Z,2.23
2018-12-22T07:51:01.832Z,2.00
2018-12-22T07:53:32.117Z,1.63
2018-12-22T07:56:02.472Z,1.60
2018-12-22T07:58:33.776Z,1.53
2018-12-22T08:01:04.109Z,1.40
2018-12-22T08:03:34.428Z,1.60
2018-12-22T08:06:04.927Z,1.47
2018-12-22T08:08:35.266Z,1.17
2018-12-22T08:11:05.589Z,1.50
2018-12-22T08:13:35.825Z,1.80
2018-12-22T08:16:06.137Z,1.90
2018-12-22T08:18:36.674Z,1.33
2018-12-22T08:21:06.965Z,1.53
2018-12-22T08:23:37.396Z,1.17
2018-12-22T08:26:07.633Z,1.80
2018-12-22T08:28:37.875Z,1.40
2018-12-22T08:31:08.115Z,1.70
2018-12-22T08:33:38.434Z,1.50
2018-12-22T08:38:32.213Z,1.00
2018-12-22T08:41:02.544Z,1.10
2018-12-22T08:43:33.615Z,1.40
2018-12-22T08:46:04.249Z,1.40
2018-12-22T08:48:34.952Z,1.60
2018-12-22T08:51:05.478Z,1.40
2018-12-22T08:53:36.017Z,1.13
2018-12-22T08:56:06.341Z,1.00
2018-12-22T08:58:37.258Z,1.50
2018-12-22T09:01:07.825Z,1.30
2018-12-22T09:03:38.359Z,1.20
2018-12-22T09:06:08.753Z,0.93
2018-12-22T09:08:38.971Z,1.20
2018-12-22T09:11:09.554Z,1.87
2018-12-22T09:13:40.292Z,1.37
2018-12-22T09:16:11.560Z,1.90
2018-12-22T09:18:41.965Z,2.53
2018-12-22T09:21:12.582Z,2.10
2018-12-22T09:23:43.129Z,2.70
2018-12-22T09:26:13.657Z,2.50
2018-12-22T09:28:44.102Z,3.20
2018-12-22T09:31:14.769Z,2.80
2018-12-22T09:33:45.196Z,3.23
2018-12-22T09:36:15.762Z,2.77
2018-12-22T09:38:46.262Z,3.30
2018-12-22T09:41:16.580Z,3.13
2018-12-22T09:43:47.022Z,2.93
2018-12-22T09:46:17.688Z,3.17
2018-12-22T09:48:48.039Z,2.93
2018-12-22T09:51:18.540Z,3.10
2018-12-22T09:53:48.814Z,2.80
2018-12-22T09:56:19.134Z,3.00
2018-12-22T09:58:50.347Z,3.47
2018-12-22T10:01:20.733Z,2.70
2018-12-22T10:03:51.118Z,2.20
2018-12-22T10:06:21.984Z,2.57
2018-12-22T10:08:52.298Z,2.67
2018-12-22T10:11:22.710Z,2.40
2018-12-22T10:13:54.171Z,3.30
2018-12-22T10:16:24.479Z,2.13
2018-12-22T10:18:54.835Z,2.27
2018-12-22T10:21:25.048Z,2.40
2018-12-22T10:23:55.483Z,1.80
2018-12-22T10:26:26.094Z,2.10
2018-12-22T10:28:56.524Z,2.33
2018-12-22T10:31:27.762Z,1.90
2018-12-22T10:33:58.409Z,1.90
2018-12-22T10:36:28.931Z,2.17
2018-12-22T10:38:59.284Z,1.73
2018-12-22T10:41:29.769Z,1.70
2018-12-22T10:44:04.664Z,2.00
2018-12-22T10:46:35.394Z,2.23
2018-12-22T10:49:05.995Z,1.60
2018-12-22T10:51:36.579Z,2.17
2018-12-22T10:54:07.134Z,2.00
2018-12-22T10:56:37.531Z,2.40
2018-12-22T10:59:09.059Z,1.97
2018-12-22T11:01:40.339Z,1.87
2018-12-22T11:04:10.658Z,1.70
2018-12-22T11:06:40.771Z,2.00
2018-12-22T11:09:14.659Z,2.03
2018-12-22T11:11:45.192Z,2.00
2018-12-22T11:14:15.986Z,2.03
2018-12-22T11:16:46.312Z,1.87
2018-12-22T11:19:16.709Z,1.77
2018-12-22T11:21:46.913Z,1.50
2018-12-22T11:24:17.466Z,2.60
2018-12-22T11:26:47.775Z,1.40
2018-12-22T11:29:19.221Z,1.40
2018-12-22T11:31:50.625Z,1.40
2018-12-22T11:34:20.935Z,1.33
2018-12-22T11:36:51.446Z,1.50
2018-12-22T11:39:21.765Z,1.90
2018-12-22T11:41:52.096Z,1.90
2018-12-22T11:44:22.541Z,1.60
2018-12-22T11:46:53.786Z,1.87
2018-12-22T11:49:41.606Z,2.10
2018-12-22T11:52:11.667Z,2.23
2018-12-22T11:54:41.986Z,2.43
2018-12-22T11:57:11.990Z,1.60
2018-12-22T11:59:43.540Z,1.90
2018-12-22T12:02:13.873Z,2.20
2018-12-22T12:04:43.995Z,2.00
2018-12-22T12:07:14.298Z,2.17
2018-12-22T12:09:44.897Z,1.73
2018-12-22T12:12:15.276Z,2.40
2018-12-22T12:14:47.209Z,2.53
2018-12-22T12:17:27.124Z,2.27
2018-12-22T12:19:57.687Z,2.30
2018-12-22T12:22:27.935Z,2.13
2018-12-22T12:24:58.529Z,2.20
2018-12-22T12:27:28.913Z,3.30
2018-12-22T12:29:59.008Z,2.47
2018-12-22T12:32:29.445Z,2.80
2018-12-22T12:34:59.891Z,3.83
2018-12-22T12:37:30.299Z,2.57
2018-12-22T12:40:00.458Z,2.10
2018-12-22T12:42:30.769Z,2.87
2018-12-22T12:45:01.407Z,2.20
2018-12-22T12:47:32.463Z,2.80
2018-12-22T12:50:02.808Z,2.17
2018-12-22T12:52:33.294Z,2.10
2018-12-22T12:55:03.622Z,2.23
2018-12-22T12:57:33.938Z,2.40
2018-12-22T13:00:05.703Z,2.47
2018-12-22T13:02:36.255Z,1.90
2018-12-22T13:05:07.333Z,2.57
2018-12-22T13:07:37.702Z,2.77
2018-12-22T13:10:10.069Z,2.50
2018-12-22T13:13:25.745Z,2.33
2018-12-22T13:15:56.157Z,2.60
2018-12-22T13:18:26.489Z,2.17
2018-12-22T13:20:56.936Z,1.93
2018-12-22T13:23:27.088Z,1.83
2018-12-22T13:25:57.577Z,1.60
2018-12-22T13:28:27.938Z,1.80
2018-12-22T13:30:58.439Z,1.73
2018-12-22T13:33:28.862Z,1.67
2018-12-22T13:35:59.300Z,1.47
2018-12-22T13:38:30.376Z,1.20
2018-12-22T13:41:00.927Z,1.50
2018-12-22T13:43:31.502Z,1.23
2018-12-22T13:46:02.872Z,1.47
2018-12-22T13:48:33.344Z,1.57
2018-12-22T13:51:04.181Z,1.67
2018-12-22T13:53:34.782Z,1.50
2018-12-22T13:56:05.308Z,1.23
2018-12-22T13:58:35.716Z,1.50
2018-12-22T14:01:09.774Z,1.40
2018-12-22T14:03:42.257Z,1.73
2018-12-22T14:06:46.488Z,1.80
2018-12-22T14:09:17.015Z,2.00
2018-12-22T14:11:47.306Z,1.93
2018-12-22T14:14:22.421Z,1.80
2018-12-22T14:16:58.513Z,2.00
2018-12-22T14:19:28.787Z,2.13
2018-12-22T14:21:59.648Z,2.30
2018-12-22T14:24:46.122Z,2.30
2018-12-22T14:27:17.102Z,2.23
2018-12-22T14:29:47.777Z,2.20
2018-12-22T14:32:26.700Z,2.73
2018-12-22T14:34:55.256Z,1.80
2018-12-22T14:37:25.666Z,2.30
2018-12-22T14:39:56.257Z,2.40
2018-12-22T14:42:26.809Z,2.50
2018-12-22T14:45:01.882Z,7.70
2018-12-22T14:47:33.594Z,3.30
2018-12-22T14:50:04.222Z,3.23
2018-12-22T14:52:35.777Z,2.67
2018-12-22T14:55:06.591Z,2.43
2018-12-22T14:57:42.726Z,2.50
2018-12-22T15:00:13.316Z,3.07
2018-12-22T15:02:43.938Z,2.27
2018-12-22T15:05:14.201Z,2.97
2018-12-22T15:07:45.748Z,3.67
2018-12-22T15:10:16.060Z,3.23
2018-12-22T15:12:46.530Z,2.50
2018-12-22T15:15:16.901Z,2.00
2018-12-22T15:17:47.222Z,1.67
2018-12-22T15:20:20.975Z,1.63
2018-12-22T15:22:51.573Z,1.83
2018-12-22T15:25:22.104Z,1.70
2018-12-22T15:27:52.422Z,1.83
2018-12-22T15:30:22.767Z,2.10
2018-12-22T15:32:54.837Z,2.43
2018-12-22T15:35:25.482Z,2.70
2018-12-22T15:37:55.877Z,3.00
2018-12-22T15:40:26.427Z,2.80
2018-12-22T15:42:57.202Z,2.73
2018-12-22T15:45:27.598Z,2.77
2018-12-22T15:47:58.244Z,6.10
2018-12-22T15:50:30.960Z,2.90
2018-12-22T15:53:01.434Z,3.43
2018-12-22T15:55:31.848Z,2.63
2018-12-22T15:58:02.038Z,3.27
2018-12-22T16:00:32.438Z,2.87
2018-12-22T16:03:03.665Z,3.40
2018-12-22T16:05:34.218Z,3.03
2018-12-22T16:08:04.607Z,3.33
2018-12-22T16:10:35.240Z,2.60
2018-12-22T16:13:05.739Z,2.83
2018-12-22T16:15:36.172Z,3.07
2018-12-22T16:18:06.576Z,2.90
2018-12-22T16:20:38.981Z,3.60
2018-12-22T16:23:09.481Z,2.70
2018-12-22T16:25:40.141Z,2.83
2018-12-22T16:28:24.255Z,3.10
2018-12-22T16:30:56.756Z,2.53
2018-12-22T16:33:27.249Z,2.17
2018-12-22T16:35:57.501Z,1.67
2018-12-22T16:38:29.108Z,1.80
2018-12-22T16:40:59.876Z,1.20
2018-12-22T16:43:30.481Z,1.17
2018-12-22T16:46:00.806Z,1.00
2018-12-22T16:48:31.971Z,1.27
2018-12-22T16:51:02.436Z,1.43
2018-12-22T16:53:32.956Z,1.50
2018-12-22T16:56:03.483Z,1.40
2018-12-22T16:58:36.809Z,1.50
2018-12-22T17:01:22.496Z,2.30
2018-12-22T17:03:53.456Z,2.83
2018-12-22T17:06:25.007Z,2.77
2018-12-22T17:08:55.563Z,2.13
2018-12-22T17:11:27.068Z,5.10
2018-12-22T17:13:57.339Z,3.57
2018-12-22T17:16:28.002Z,4.77
2018-12-22T17:18:58.677Z,6.00
2018-12-22T17:21:33.298Z,3.47
2018-12-22T17:24:12.408Z,2.70
2018-12-22T17:26:44.776Z,1.63
2018-12-22T17:29:15.182Z,1.43
2018-12-22T17:31:45.762Z,1.70
2018-12-22T17:34:17.032Z,1.90
2018-12-22T17:36:47.708Z,1.70
2018-12-22T17:39:18.654Z,1.60
2018-12-22T17:41:49.411Z,1.50
2018-12-22T17:44:22.672Z,1.90
2018-12-22T17:46:54.077Z,2.47
2018-12-22T17:49:24.531Z,2.10
2018-12-22T17:51:54.806Z,2.50
2018-12-22T17:54:26.215Z,1.43
2018-12-22T17:56:56.685Z,1.50
2018-12-22T17:59:27.225Z,1.40
2018-12-22T18:01:57.715Z,1.07
2018-12-22T18:04:28.225Z,1.27
2018-12-22T18:06:58.736Z,1.20
2018-12-22T18:09:29.443Z,1.70
2018-12-22T18:12:00.080Z,2.03
2018-12-22T18:14:30.790Z,1.40
2018-12-22T18:17:01.339Z,1.47
2018-12-22T18:19:31.691Z,1.57
2018-12-22T18:22:02.030Z,1.90
2018-12-22T18:24:32.532Z,2.00
2018-12-22T18:27:02.994Z,2.20
2018-12-22T18:29:33.372Z,2.63
2018-12-22T18:32:03.892Z,3.17
2018-12-22T18:34:34.219Z,3.20
2018-12-22T18:37:04.806Z,3.43
2018-12-22T18:39:35.168Z,3.90
2018-12-22T18:42:05.445Z,5.03
2018-12-22T18:44:37.074Z,4.40
2018-12-22T18:47:07.641Z,4.80
2018-12-22T18:49:38.025Z,5.57
2018-12-22T18:52:08.593Z,5.03
2018-12-22T18:54:39.070Z,4.40
2018-12-22T18:57:13.441Z,2.70
2018-12-22T18:59:43.915Z,1.60
2018-12-22T19:02:14.400Z,1.53
2018-12-22T19:04:44.917Z,1.50
2018-12-22T19:07:15.306Z,1.80
2018-12-22T19:09:48.002Z,1.43
2018-12-22T19:12:19.182Z,1.10
2018-12-22T19:14:55.189Z,1.70
2018-12-22T19:17:26.044Z,2.47
2018-12-22T19:19:56.392Z,2.80
2018-12-22T19:22:27.025Z,2.90
2018-12-22T19:24:57.602Z,4.43
2018-12-22T19:27:28.245Z,5.97
2018-12-22T19:29:58.882Z,5.17
2018-12-22T19:32:33.963Z,3.33
2018-12-22T19:35:04.363Z,3.17
2018-12-22T19:37:34.800Z,2.70
2018-12-22T19:40:05.647Z,3.60
2018-12-22T19:42:36.182Z,4.93
2018-12-22T19:45:08.068Z,4.60
2018-12-22T19:47:38.870Z,4.70
2018-12-22T19:50:09.502Z,4.30
2018-12-22T19:52:40.053Z,4.47
2018-12-22T19:55:10.206Z,5.43
2018-12-22T19:57:40.410Z,5.50
2018-12-22T20:00:10.999Z,6.40
2018-12-22T20:02:41.366Z,6.00
2018-12-22T20:05:12.069Z,6.03
2018-12-22T20:07:42.508Z,5.63
2018-12-22T20:10:12.850Z,5.90
2018-12-22T20:12:43.408Z,6.13
2018-12-22T20:15:13.919Z,5.63
2018-12-22T20:17:44.495Z,4.93
2018-12-22T20:20:15.095Z,5.90
2018-12-22T20:22:45.778Z,5.70
2018-12-22T20:25:16.182Z,5.40
2018-12-22T20:27:47.895Z,4.63
2018-12-22T20:30:18.261Z,5.10
2018-12-22T20:32:48.754Z,4.97
2018-12-22T20:35:19.327Z,5.77
2018-12-22T20:37:50.034Z,4.63
2018-12-22T20:40:20.772Z,7.20
2018-12-22T20:42:51.287Z,6.20
2018-12-22T20:45:23.378Z,8.43
2018-12-22T20:47:53.984Z,6.57
2018-12-22T20:50:24.715Z,6.00
2018-12-22T20:52:55.171Z,9.57
2018-12-22T20:55:26.703Z,8.23
2018-12-22T20:57:57.148Z,5.53
2018-12-22T21:00:27.638Z,9.20
2018-12-22T21:02:58.044Z,8.37
2018-12-22T21:05:31.348Z,4.27
2018-12-22T21:08:01.711Z,4.43
2018-12-22T21:10:32.157Z,7.17
2018-12-22T21:13:02.740Z,4.90
2018-12-22T21:15:33.203Z,5.57
2018-12-22T21:18:03.690Z,6.33
2018-12-22T21:20:34.119Z,8.80
2018-12-22T21:23:04.564Z,12.43
2018-12-22T21:25:35.139Z,5.00
2018-12-22T21:28:05.702Z,4.83
2018-12-22T21:30:36.187Z,4.77
2018-12-22T21:33:06.829Z,4.50
2018-12-22T21:35:37.361Z,3.73
2018-12-22T21:38:07.824Z,5.03
2018-12-22T21:40:38.171Z,4.73
2018-12-22T21:43:08.539Z,3.93
2018-12-22T21:45:40.261Z,4.77
2018-12-22T21:48:12.399Z,5.83
2018-12-22T21:50:43.039Z,3.73
2018-12-22T21:53:13.564Z,4.20
2018-12-22T21:55:44.088Z,4.83
2018-12-22T21:58:14.522Z,3.53
2018-12-22T22:00:44.986Z,3.40
2018-12-22T22:03:15.393Z,3.40
2018-12-22T22:05:45.694Z,2.47
2018-12-22T22:08:17.211Z,2.50
2018-12-22T22:10:47.573Z,2.37
2018-12-22T22:13:17.845Z,3.23
2018-12-22T22:15:48.221Z,2.30
2018-12-22T22:18:19.687Z,2.20
2018-12-22T22:20:50.107Z,2.10
2018-12-22T22:23:20.747Z,2.33
2018-12-22T22:25:51.277Z,2.20
2018-12-22T22:28:22.016Z,2.27
2018-12-22T22:30:52.567Z,2.37
2018-12-22T22:33:23.072Z,2.17
2018-12-22T22:35:53.728Z,2.40
2018-12-22T22:38:24.988Z,2.20
2018-12-22T22:40:55.416Z,3.03
2018-12-22T22:43:25.944Z,2.70
2018-12-22T22:45:57.970Z,3.30
2018-12-22T22:48:28.729Z,3.47
2018-12-22T22:50:59.193Z,3.20
2018-12-22T22:53:29.693Z,2.70
2018-12-22T22:56:00.110Z,2.43
2018-12-22T22:58:30.441Z,2.83
2018-12-22T23:01:01.064Z,2.60
2018-12-22T23:03:32.779Z,3.23
2018-12-22T23:06:03.269Z,2.50
2018-12-22T23:08:33.605Z,2.63
2018-12-22T23:11:04.472Z,2.90
2018-12-22T23:13:35.049Z,4.03
2018-12-22T23:16:05.578Z,3.20
2018-12-22T23:18:35.922Z,3.63
2018-12-22T23:21:06.347Z,3.87
2018-12-22T23:23:36.831Z,3.13
2018-12-22T23:26:07.429Z,3.40
2018-12-22T23:28:38.149Z,3.07
2018-12-22T23:31:08.592Z,3.50
2018-12-22T23:33:39.010Z,4.13
2018-12-22T23:36:09.434Z,3.73
2018-12-22T23:38:39.806Z,4.27
2018-12-22T23:41:10.354Z,4.20
2018-12-22T23:43:40.534Z,3.70
2018-12-22T23:46:11.699Z,4.00
2018-12-22T23:48:42.211Z,3.77
2018-12-22T23:51:12.879Z,4.93
2018-12-22T23:53:43.274Z,4.87
2018-12-22T23:56:13.595Z,4.80
2018-12-22T23:58:44.111Z,4.33
